< < Back
Terminal Aerodrome Forecast


Current Version              Previous Versions:   1  2  3  4  5  6  7  8  9  

Terminal Aerodrome Forecast

193
FTUS42 KILM 271720
TAFFLO
TAF
KFLO 271720Z 2718/2818 22008KT P6SM VCSH SCT025 BKN060
      TEMPO 2718/2721 4SM SHRA BKN030
     FM272100 18008KT P6SM SCT025 BKN050 OVC100
     FM280200 18004KT P6SM BKN250
     FM280700 13002KT 4SM BR SKC
     FM281200 19008KT P6SM FEW025 SCT250=



Latest METAR

899
SAUS70 KWBC 281000 RRD
MTRFLO
METAR KFLO 280953Z AUTO 00000KT 9SM CLR 20/19 A3020 RMK AO2 SLP224
T02000189


USA.gov is the U.S. government's official web portal to all federal, state and local government web resources and services.